sensor_id;sensor_type;location;lat;lon;timestamp;temperature;humidity
5846;DHT22;2949;50.778;7.094;2023-02-15T00:01:38;1.30;99.90
5846;DHT22;2949;50.778;7.094;2023-02-15T00:04:05;1.30;99.90
5846;DHT22;2949;50.778;7.094;2023-02-15T00:06:31;1.30;99.90
5846;DHT22;2949;50.778;7.094;2023-02-15T00:08:58;1.40;99.90
5846;DHT22;2949;50.778;7.094;2023-02-15T00:11:25;1.40;99.90
5846;DHT22;2949;50.778;7.094;2023-02-15T00:14:07;1.40;99.90
5846;DHT22;2949;50.778;7.094;2023-02-15T00:16:33;1.40;99.90
5846;DHT22;2949;50.778;7.094;2023-02-15T00:18:59;1.40;99.90
5846;DHT22;2949;50.778;7.094;2023-02-15T00:21:27;1.40;99.90
5846;DHT22;2949;50.778;7.094;2023-02-15T00:23:53;1.40;99.90
5846;DHT22;2949;50.778;7.094;2023-02-15T00:26:19;1.40;99.90
5846;DHT22;2949;50.778;7.094;2023-02-15T00:28:44;1.50;99.90
5846;DHT22;2949;50.778;7.094;2023-02-15T00:31:11;1.50;99.90
5846;DHT22;2949;50.778;7.094;2023-02-15T00:33:38;1.50;99.90
5846;DHT22;2949;50.778;7.094;2023-02-15T00:36:06;1.50;99.90
5846;DHT22;2949;50.778;7.094;2023-02-15T00:38:33;1.50;99.90
5846;DHT22;2949;50.778;7.094;2023-02-15T00:41:01;1.50;99.90
5846;DHT22;2949;50.778;7.094;2023-02-15T00:43:29;1.40;99.90
5846;DHT22;2949;50.778;7.094;2023-02-15T00:45:54;1.40;99.90
5846;DHT22;2949;50.778;7.094;2023-02-15T00:48:20;1.40;99.90
5846;DHT22;2949;50.778;7.094;2023-02-15T00:50:51;1.40;99.90
5846;DHT22;2949;50.778;7.094;2023-02-15T00:53:17;1.40;99.90
5846;DHT22;2949;50.778;7.094;2023-02-15T00:55:43;1.30;99.90
5846;DHT22;2949;50.778;7.094;2023-02-15T00:58:09;1.20;99.90
5846;DHT22;2949;50.778;7.094;2023-02-15T01:00:36;1.20;99.90
5846;DHT22;2949;50.778;7.094;2023-02-15T01:03:02;1.20;99.90
5846;DHT22;2949;50.778;7.094;2023-02-15T01:05:28;1.10;99.90
5846;DHT22;2949;50.778;7.094;2023-02-15T01:07:55;1.00;99.90
5846;DHT22;2949;50.778;7.094;2023-02-15T01:10:21;1.00;99.90
5846;DHT22;2949;50.778;7.094;2023-02-15T01:12:46;1.10;99.90
5846;DHT22;2949;50.778;7.094;2023-02-15T01:15:12;1.00;99.90
5846;DHT22;2949;50.778;7.094;2023-02-15T01:17:37;1.10;99.90
5846;DHT22;2949;50.778;7.094;2023-02-15T01:20:04;1.10;99.90
5846;DHT22;2949;50.778;7.094;2023-02-15T01:22:29;1.10;99.90
5846;DHT22;2949;50.778;7.094;2023-02-15T01:24:55;1.10;99.90
5846;DHT22;2949;50.778;7.094;2023-02-15T01:27:20;1.10;99.90
5846;DHT22;2949;50.778;7.094;2023-02-15T01:29:46;1.10;99.90
5846;DHT22;2949;50.778;7.094;2023-02-15T01:32:12;1.10;99.90
5846;DHT22;2949;50.778;7.094;2023-02-15T01:34:38;1.10;99.90
5846;DHT22;2949;50.778;7.094;2023-02-15T01:37:03;1.10;99.90
5846;DHT22;2949;50.778;7.094;2023-02-15T01:39:29;1.20;99.90
5846;DHT22;2949;50.778;7.094;2023-02-15T01:41:54;1.20;99.90
5846;DHT22;2949;50.778;7.094;2023-02-15T01:44:53;1.20;99.90
5846;DHT22;2949;50.778;7.094;2023-02-15T01:52:55;1.00;99.90
5846;DHT22;2949;50.778;7.094;2023-02-15T01:55:25;0.90;99.90
5846;DHT22;2949;50.778;7.094;2023-02-15T01:57:52;0.80;99.90
5846;DHT22;2949;50.778;7.094;2023-02-15T02:00:18;0.80;99.90
5846;DHT22;2949;50.778;7.094;2023-02-15T02:02:45;0.80;99.90
5846;DHT22;2949;50.778;7.094;2023-02-15T02:05:11;0.80;99.90
5846;DHT22;2949;50.778;7.094;2023-02-15T02:07:40;0.80;99.90
5846;DHT22;2949;50.778;7.094;2023-02-15T02:10:08;0.80;99.90
5846;DHT22;2949;50.778;7.094;2023-02-15T02:12:35;0.80;99.90
5846;DHT22;2949;50.778;7.094;2023-02-15T02:15:02;0.80;99.90
5846;DHT22;2949;50.778;7.094;2023-02-15T02:23:36;0.80;99.90
5846;DHT22;2949;50.778;7.094;2023-02-15T02:31:57;0.80;99.90
5846;DHT22;2949;50.778;7.094;2023-02-15T02:34:55;0.70;99.90
5846;DHT22;2949;50.778;7.094;2023-02-15T02:39:59;0.80;99.90
5846;DHT22;2949;50.778;7.094;2023-02-15T02:42:38;0.80;99.90
5846;DHT22;2949;50.778;7.094;2023-02-15T02:50:13;0.80;99.90
5846;DHT22;2949;50.778;7.094;2023-02-15T02:52:43;0.90;99.90
5846;DHT22;2949;50.778;7.094;2023-02-15T03:00:38;0.90;99.90
5846;DHT22;2949;50.778;7.094;2023-02-15T03:03:10;1.00;99.90
5846;DHT22;2949;50.778;7.094;2023-02-15T03:05:41;0.90;99.90
5846;DHT22;2949;50.778;7.094;2023-02-15T03:08:09;0.90;99.90
5846;DHT22;2949;50.778;7.094;2023-02-15T03:10:38;1.00;99.90
5846;DHT22;2949;50.778;7.094;2023-02-15T03:13:04;1.00;99.90
5846;DHT22;2949;50.778;7.094;2023-02-15T03:15:34;1.00;99.90
5846;DHT22;2949;50.778;7.094;2023-02-15T03:18:22;0.90;99.90
5846;DHT22;2949;50.778;7.094;2023-02-15T03:20:51;0.90;99.90
5846;DHT22;2949;50.778;7.094;2023-02-15T03:23:21;0.90;99.90
5846;DHT22;2949;50.778;7.094;2023-02-15T03:25:52;0.80;99.90
5846;DHT22;2949;50.778;7.094;2023-02-15T03:28:25;0.90;99.90
5846;DHT22;2949;50.778;7.094;2023-02-15T03:30:56;0.90;99.90
5846;DHT22;2949;50.778;7.094;2023-02-15T03:33:26;0.90;99.90
5846;DHT22;2949;50.778;7.094;2023-02-15T03:38:28;0.80;99.90
5846;DHT22;2949;50.778;7.094;2023-02-15T03:40:58;0.80;99.90
5846;DHT22;2949;50.778;7.094;2023-02-15T03:43:53;0.70;99.90
5846;DHT22;2949;50.778;7.094;2023-02-15T03:46:29;0.70;99.90
5846;DHT22;2949;50.778;7.094;2023-02-15T03:50:07;0.70;99.90
5846;DHT22;2949;50.778;7.094;2023-02-15T03:52:02;0.70;99.90
5846;DHT22;2949;50.778;7.094;2023-02-15T03:54:32;0.80;99.90
5846;DHT22;2949;50.778;7.094;2023-02-15T03:59:58;0.80;99.90
5846;DHT22;2949;50.778;7.094;2023-02-15T04:05:42;0.80;99.90
5846;DHT22;2949;50.778;7.094;2023-02-15T04:08:09;0.80;99.90
5846;DHT22;2949;50.778;7.094;2023-02-15T04:10:35;0.80;99.90
5846;DHT22;2949;50.778;7.094;2023-02-15T04:13:21;0.80;99.90
5846;DHT22;2949;50.778;7.094;2023-02-15T04:15:47;0.80;99.90
5846;DHT22;2949;50.778;7.094;2023-02-15T04:21:13;0.70;99.90
5846;DHT22;2949;50.778;7.094;2023-02-15T04:23:57;0.80;99.90
5846;DHT22;2949;50.778;7.094;2023-02-15T04:26:41;0.70;99.90
5846;DHT22;2949;50.778;7.094;2023-02-15T04:29:07;0.60;99.90
5846;DHT22;2949;50.778;7.094;2023-02-15T04:31:32;0.60;99.90
5846;DHT22;2949;50.778;7.094;2023-02-15T04:33:58;0.50;99.90
5846;DHT22;2949;50.778;7.094;2023-02-15T04:36:23;0.50;99.90
5846;DHT22;2949;50.778;7.094;2023-02-15T04:38:49;0.60;99.90
5846;DHT22;2949;50.778;7.094;2023-02-15T04:41:14;0.60;99.90
5846;DHT22;2949;50.778;7.094;2023-02-15T04:43:40;0.60;99.90
5846;DHT22;2949;50.778;7.094;2023-02-15T04:46:05;0.70;99.90
5846;DHT22;2949;50.778;7.094;2023-02-15T04:48:31;0.60;99.90
5846;DHT22;2949;50.778;7.094;2023-02-15T04:50:56;0.60;99.90
5846;DHT22;2949;50.778;7.094;2023-02-15T04:53:22;0.60;99.90
5846;DHT22;2949;50.778;7.094;2023-02-15T04:55:47;0.60;99.90
5846;DHT22;2949;50.778;7.094;2023-02-15T04:58:13;0.60;99.90
5846;DHT22;2949;50.778;7.094;2023-02-15T05:00:38;0.60;99.90
5846;DHT22;2949;50.778;7.094;2023-02-15T05:03:04;0.60;99.90
5846;DHT22;2949;50.778;7.094;2023-02-15T05:05:30;0.60;99.90
5846;DHT22;2949;50.778;7.094;2023-02-15T05:07:55;0.60;99.90
5846;DHT22;2949;50.778;7.094;2023-02-15T05:10:21;0.60;99.90
5846;DHT22;2949;50.778;7.094;2023-02-15T05:12:46;0.60;99.90
5846;DHT22;2949;50.778;7.094;2023-02-15T05:15:12;0.70;99.90
5846;DHT22;2949;50.778;7.094;2023-02-15T05:17:38;0.70;99.90
5846;DHT22;2949;50.778;7.094;2023-02-15T05:20:04;0.70;99.90
5846;DHT22;2949;50.778;7.094;2023-02-15T05:22:29;0.70;99.90
5846;DHT22;2949;50.778;7.094;2023-02-15T05:24:55;0.70;99.90
5846;DHT22;2949;50.778;7.094;2023-02-15T05:27:39;0.60;99.90
5846;DHT22;2949;50.778;7.094;2023-02-15T05:30:23;0.60;99.90
5846;DHT22;2949;50.778;7.094;2023-02-15T05:32:49;0.60;99.90
5846;DHT22;2949;50.778;7.094;2023-02-15T05:35:15;0.60;99.90
5846;DHT22;2949;50.778;7.094;2023-02-15T05:37:41;0.60;99.90
5846;DHT22;2949;50.778;7.094;2023-02-15T05:40:07;0.60;99.90
5846;DHT22;2949;50.778;7.094;2023-02-15T05:42:33;0.60;99.90
5846;DHT22;2949;50.778;7.094;2023-02-15T05:44:59;0.60;99.90
5846;DHT22;2949;50.778;7.094;2023-02-15T05:47:24;0.60;99.90
5846;DHT22;2949;50.778;7.094;2023-02-15T05:49:50;0.60;99.90
5846;DHT22;2949;50.778;7.094;2023-02-15T05:52:15;0.60;99.90
5846;DHT22;2949;50.778;7.094;2023-02-15T05:54:41;0.50;99.90
5846;DHT22;2949;50.778;7.094;2023-02-15T05:57:06;0.50;99.90
5846;DHT22;2949;50.778;7.094;2023-02-15T05:59:32;0.60;99.90
5846;DHT22;2949;50.778;7.094;2023-02-15T06:01:57;0.60;99.90
5846;DHT22;2949;50.778;7.094;2023-02-15T06:04:23;0.60;99.90
5846;DHT22;2949;50.778;7.094;2023-02-15T06:06:49;0.70;99.90
5846;DHT22;2949;50.778;7.094;2023-02-15T06:09:14;0.60;99.90
5846;DHT22;2949;50.778;7.094;2023-02-15T06:11:40;0.60;99.90
5846;DHT22;2949;50.778;7.094;2023-02-15T06:14:05;0.60;99.90
5846;DHT22;2949;50.778;7.094;2023-02-15T06:16:31;0.60;99.90
5846;DHT22;2949;50.778;7.094;2023-02-15T06:18:56;0.60;99.90
5846;DHT22;2949;50.778;7.094;2023-02-15T06:21:24;0.60;99.90
5846;DHT22;2949;50.778;7.094;2023-02-15T06:23:49;0.60;99.90
5846;DHT22;2949;50.778;7.094;2023-02-15T06:26:15;0.60;99.90
5846;DHT22;2949;50.778;7.094;2023-02-15T06:28:40;0.50;99.90
5846;DHT22;2949;50.778;7.094;2023-02-15T06:31:06;0.50;99.90
5846;DHT22;2949;50.778;7.094;2023-02-15T06:33:32;0.50;99.90
5846;DHT22;2949;50.778;7.094;2023-02-15T06:35:59;0.60;99.90
5846;DHT22;2949;50.778;7.094;2023-02-15T06:38:24;0.60;99.90
5846;DHT22;2949;50.778;7.094;2023-02-15T06:40:50;0.60;99.90
5846;DHT22;2949;50.778;7.094;2023-02-15T06:43:15;0.60;99.90
5846;DHT22;2949;50.778;7.094;2023-02-15T06:45:41;0.60;99.90
5846;DHT22;2949;50.778;7.094;2023-02-15T06:48:06;0.60;99.90
5846;DHT22;2949;50.778;7.094;2023-02-15T06:50:33;0.70;99.90
5846;DHT22;2949;50.778;7.094;2023-02-15T06:52:59;0.70;99.90
5846;DHT22;2949;50.778;7.094;2023-02-15T06:55:25;0.70;99.90
5846;DHT22;2949;50.778;7.094;2023-02-15T06:57:51;0.70;99.90
5846;DHT22;2949;50.778;7.094;2023-02-15T07:00:16;0.80;99.90
5846;DHT22;2949;50.778;7.094;2023-02-15T07:02:43;0.80;99.90
5846;DHT22;2949;50.778;7.094;2023-02-15T07:05:08;0.80;99.90
5846;DHT22;2949;50.778;7.094;2023-02-15T07:07:34;0.90;99.90
5846;DHT22;2949;50.778;7.094;2023-02-15T07:09:59;0.90;99.90
5846;DHT22;2949;50.778;7.094;2023-02-15T07:12:26;1.00;99.90
5846;DHT22;2949;50.778;7.094;2023-02-15T07:15:08;1.00;99.90
5846;DHT22;2949;50.778;7.094;2023-02-15T07:17:34;1.10;99.90
5846;DHT22;2949;50.778;7.094;2023-02-15T07:20:00;1.10;99.90
5846;DHT22;2949;50.778;7.094;2023-02-15T07:22:26;1.20;99.90
5846;DHT22;2949;50.778;7.094;2023-02-15T07:24:51;1.20;99.90
5846;DHT22;2949;50.778;7.094;2023-02-15T07:27:20;1.20;99.90
5846;DHT22;2949;50.778;7.094;2023-02-15T07:29:45;1.30;99.90
5846;DHT22;2949;50.778;7.094;2023-02-15T07:32:11;1.40;99.90
5846;DHT22;2949;50.778;7.094;2023-02-15T07:34:36;1.40;99.90
5846;DHT22;2949;50.778;7.094;2023-02-15T07:37:02;1.70;99.90
5846;DHT22;2949;50.778;7.094;2023-02-15T07:39:27;2.60;99.90
5846;DHT22;2949;50.778;7.094;2023-02-15T07:41:53;4.40;99.90
5846;DHT22;2949;50.778;7.094;2023-02-15T07:44:18;5.80;99.90
5846;DHT22;2949;50.778;7.094;2023-02-15T07:46:44;7.00;99.90
5846;DHT22;2949;50.778;7.094;2023-02-15T07:49:09;7.70;99.90
5846;DHT22;2949;50.778;7.094;2023-02-15T07:51:35;8.30;99.90
5846;DHT22;2949;50.778;7.094;2023-02-15T07:54:00;8.90;99.90
5846;DHT22;2949;50.778;7.094;2023-02-15T07:56:26;9.70;99.90
5846;DHT22;2949;50.778;7.094;2023-02-15T07:58:52;9.90;99.90
5846;DHT22;2949;50.778;7.094;2023-02-15T08:01:19;10.10;99.90
5846;DHT22;2949;50.778;7.094;2023-02-15T08:03:45;10.10;99.90
5846;DHT22;2949;50.778;7.094;2023-02-15T08:06:11;10.10;99.90
5846;DHT22;2949;50.778;7.094;2023-02-15T08:08:39;10.70;99.90
5846;DHT22;2949;50.778;7.094;2023-02-15T08:11:06;11.50;99.90
5846;DHT22;2949;50.778;7.094;2023-02-15T08:13:52;12.20;99.90
5846;DHT22;2949;50.778;7.094;2023-02-15T08:16:28;12.40;99.90
5846;DHT22;2949;50.778;7.094;2023-02-15T08:18:55;12.30;99.90
5846;DHT22;2949;50.778;7.094;2023-02-15T08:21:22;12.00;99.90
5846;DHT22;2949;50.778;7.094;2023-02-15T08:23:48;11.50;99.90
5846;DHT22;2949;50.778;7.094;2023-02-15T08:26:14;11.50;99.90
5846;DHT22;2949;50.778;7.094;2023-02-15T08:28:41;11.50;99.90
5846;DHT22;2949;50.778;7.094;2023-02-15T08:31:11;11.70;99.90
5846;DHT22;2949;50.778;7.094;2023-02-15T08:33:38;11.70;99.90
5846;DHT22;2949;50.778;7.094;2023-02-15T08:36:05;10.80;99.90
5846;DHT22;2949;50.778;7.094;2023-02-15T08:38:31;9.90;99.90
5846;DHT22;2949;50.778;7.094;2023-02-15T08:40:58;9.40;99.90
5846;DHT22;2949;50.778;7.094;2023-02-15T08:43:23;9.40;99.90
5846;DHT22;2949;50.778;7.094;2023-02-15T08:45:49;10.40;99.90
5846;DHT22;2949;50.778;7.094;2023-02-15T08:48:14;11.70;99.90
5846;DHT22;2949;50.778;7.094;2023-02-15T08:50:41;12.60;99.90
5846;DHT22;2949;50.778;7.094;2023-02-15T08:53:06;12.90;99.70
5846;DHT22;2949;50.778;7.094;2023-02-15T08:55:32;13.20;97.60
5846;DHT22;2949;50.778;7.094;2023-02-15T08:57:57;13.40;96.90
5846;DHT22;2949;50.778;7.094;2023-02-15T09:00:23;13.70;96.10
5846;DHT22;2949;50.778;7.094;2023-02-15T09:02:48;14.10;94.70
5846;DHT22;2949;50.778;7.094;2023-02-15T09:05:14;14.40;93.00
5846;DHT22;2949;50.778;7.094;2023-02-15T09:07:39;14.70;92.80
5846;DHT22;2949;50.778;7.094;2023-02-15T09:10:06;15.30;92.30
5846;DHT22;2949;50.778;7.094;2023-02-15T09:12:32;15.90;88.20
5846;DHT22;2949;50.778;7.094;2023-02-15T09:14:57;15.70;84.90
5846;DHT22;2949;50.778;7.094;2023-02-15T09:17:23;15.20;86.70
5846;DHT22;2949;50.778;7.094;2023-02-15T09:19:48;15.00;86.80
5846;DHT22;2949;50.778;7.094;2023-02-15T09:22:14;14.90;88.80
5846;DHT22;2949;50.778;7.094;2023-02-15T09:24:39;15.20;89.20
5846;DHT22;2949;50.778;7.094;2023-02-15T09:27:05;15.70;84.20
5846;DHT22;2949;50.778;7.094;2023-02-15T09:29:30;15.90;84.10
5846;DHT22;2949;50.778;7.094;2023-02-15T09:31:56;16.10;81.90
5846;DHT22;2949;50.778;7.094;2023-02-15T09:34:22;16.20;80.10
5846;DHT22;2949;50.778;7.094;2023-02-15T09:36:48;16.30;79.50
5846;DHT22;2949;50.778;7.094;2023-02-15T09:39:22;16.10;79.90
5846;DHT22;2949;50.778;7.094;2023-02-15T09:49:54;16.80;73.70
5846;DHT22;2949;50.778;7.094;2023-02-15T09:55:20;17.40;73.20
5846;DHT22;2949;50.778;7.094;2023-02-15T10:03:20;16.30;74.30
5846;DHT22;2949;50.778;7.094;2023-02-15T10:28:01;15.50;77.20
5846;DHT22;2949;50.778;7.094;2023-02-15T10:30:39;15.50;76.20
5846;DHT22;2949;50.778;7.094;2023-02-15T10:33:35;15.20;77.90
5846;DHT22;2949;50.778;7.094;2023-02-15T10:36:26;15.30;78.50
5846;DHT22;2949;50.778;7.094;2023-02-15T10:41:52;15.70;75.30
5846;DHT22;2949;50.778;7.094;2023-02-15T10:50:46;15.70;76.50
5846;DHT22;2949;50.778;7.094;2023-02-15T10:53:30;15.80;75.20
5846;DHT22;2949;50.778;7.094;2023-02-15T10:56:05;15.90;76.10
5846;DHT22;2949;50.778;7.094;2023-02-15T11:06:58;16.50;72.80
5846;DHT22;2949;50.778;7.094;2023-02-15T11:09:33;16.50;72.90
5846;DHT22;2949;50.778;7.094;2023-02-15T11:12:01;16.40;72.80
5846;DHT22;2949;50.778;7.094;2023-02-15T11:14:41;16.10;73.20
5846;DHT22;2949;50.778;7.094;2023-02-15T11:17:12;15.90;74.50
5846;DHT22;2949;50.778;7.094;2023-02-15T11:22:32;15.80;75.90
5846;DHT22;2949;50.778;7.094;2023-02-15T11:24:59;15.30;76.60
5846;DHT22;2949;50.778;7.094;2023-02-15T11:27:29;14.30;80.50
5846;DHT22;2949;50.778;7.094;2023-02-15T11:30:13;13.30;86.80
5846;DHT22;2949;50.778;7.094;2023-02-15T11:32:56;12.40;90.80
5846;DHT22;2949;50.778;7.094;2023-02-15T11:35:37;11.70;93.40
5846;DHT22;2949;50.778;7.094;2023-02-15T11:38:12;11.20;96.10
5846;DHT22;2949;50.778;7.094;2023-02-15T11:41:01;10.80;98.50
5846;DHT22;2949;50.778;7.094;2023-02-15T11:43:47;10.60;99.90
5846;DHT22;2949;50.778;7.094;2023-02-15T11:46:15;10.60;99.90
5846;DHT22;2949;50.778;7.094;2023-02-15T11:48:41;10.40;99.90
5846;DHT22;2949;50.778;7.094;2023-02-15T11:51:17;10.40;99.90
5846;DHT22;2949;50.778;7.094;2023-02-15T11:53:44;10.40;99.90
5846;DHT22;2949;50.778;7.094;2023-02-15T11:56:21;10.40;99.90
5846;DHT22;2949;50.778;7.094;2023-02-15T11:58:55;10.50;99.90
5846;DHT22;2949;50.778;7.094;2023-02-15T12:01:42;10.60;99.90
5846;DHT22;2949;50.778;7.094;2023-02-15T12:04:32;10.70;99.90
5846;DHT22;2949;50.778;7.094;2023-02-15T12:07:05;10.80;99.90
5846;DHT22;2949;50.778;7.094;2023-02-15T12:09:48;10.80;99.90
5846;DHT22;2949;50.778;7.094;2023-02-15T12:12:29;10.80;99.90
5846;DHT22;2949;50.778;7.094;2023-02-15T12:14:59;10.70;99.90
5846;DHT22;2949;50.778;7.094;2023-02-15T12:17:31;10.70;99.90
5846;DHT22;2949;50.778;7.094;2023-02-15T12:20:19;10.60;99.90
5846;DHT22;2949;50.778;7.094;2023-02-15T12:22:50;10.50;99.90
5846;DHT22;2949;50.778;7.094;2023-02-15T12:25:41;10.40;99.90
5846;DHT22;2949;50.778;7.094;2023-02-15T12:28:34;10.40;99.90
5846;DHT22;2949;50.778;7.094;2023-02-15T12:31:02;10.30;99.90
5846;DHT22;2949;50.778;7.094;2023-02-15T12:33:29;10.40;99.90
5846;DHT22;2949;50.778;7.094;2023-02-15T12:36:24;10.40;99.90
5846;DHT22;2949;50.778;7.094;2023-02-15T12:39:15;10.30;99.90
5846;DHT22;2949;50.778;7.094;2023-02-15T12:42:13;10.30;99.90
5846;DHT22;2949;50.778;7.094;2023-02-15T12:44:56;10.40;99.90
5846;DHT22;2949;50.778;7.094;2023-02-15T12:47:22;10.30;99.90
5846;DHT22;2949;50.778;7.094;2023-02-15T12:50:10;10.40;99.90
5846;DHT22;2949;50.778;7.094;2023-02-15T12:52:43;10.50;99.90
5846;DHT22;2949;50.778;7.094;2023-02-15T12:55:23;10.60;99.90
5846;DHT22;2949;50.778;7.094;2023-02-15T12:57:49;10.60;99.90
5846;DHT22;2949;50.778;7.094;2023-02-15T13:02:53;10.80;99.90
5846;DHT22;2949;50.778;7.094;2023-02-15T13:05:30;10.80;99.90
5846;DHT22;2949;50.778;7.094;2023-02-15T13:07:58;10.90;99.90
5846;DHT22;2949;50.778;7.094;2023-02-15T13:10:36;10.90;99.90
5846;DHT22;2949;50.778;7.094;2023-02-15T13:13:10;10.80;99.90
5846;DHT22;2949;50.778;7.094;2023-02-15T13:15:38;10.80;99.90
5846;DHT22;2949;50.778;7.094;2023-02-15T13:18:44;10.90;99.90
5846;DHT22;2949;50.778;7.094;2023-02-15T13:21:26;11.00;99.90
5846;DHT22;2949;50.778;7.094;2023-02-15T13:23:57;11.00;99.90
5846;DHT22;2949;50.778;7.094;2023-02-15T13:26:26;11.10;99.90
5846;DHT22;2949;50.778;7.094;2023-02-15T13:28:56;11.10;99.90
5846;DHT22;2949;50.778;7.094;2023-02-15T13:31:26;11.20;99.90
5846;DHT22;2949;50.778;7.094;2023-02-15T13:39:38;11.40;99.90
5846;DHT22;2949;50.778;7.094;2023-02-15T13:42:24;11.40;99.90
5846;DHT22;2949;50.778;7.094;2023-02-15T13:56:24;11.50;99.90
5846;DHT22;2949;50.778;7.094;2023-02-15T14:01:39;11.60;99.90
5846;DHT22;2949;50.778;7.094;2023-02-15T14:04:25;11.60;99.90
5846;DHT22;2949;50.778;7.094;2023-02-15T14:07:03;11.70;99.90
5846;DHT22;2949;50.778;7.094;2023-02-15T14:12:52;11.60;99.90
5846;DHT22;2949;50.778;7.094;2023-02-15T14:15:41;11.60;99.90
5846;DHT22;2949;50.778;7.094;2023-02-15T14:18:42;11.60;99.90
5846;DHT22;2949;50.778;7.094;2023-02-15T14:21:31;11.60;99.90
5846;DHT22;2949;50.778;7.094;2023-02-15T14:29:24;11.60;99.90
5846;DHT22;2949;50.778;7.094;2023-02-15T14:31:57;11.60;99.90
5846;DHT22;2949;50.778;7.094;2023-02-15T14:34:44;11.60;99.90
5846;DHT22;2949;50.778;7.094;2023-02-15T14:37:12;11.50;99.90
5846;DHT22;2949;50.778;7.094;2023-02-15T14:40:06;11.50;99.90
5846;DHT22;2949;50.778;7.094;2023-02-15T14:45:20;11.30;99.90
5846;DHT22;2949;50.778;7.094;2023-02-15T14:48:02;11.30;99.90
5846;DHT22;2949;50.778;7.094;2023-02-15T14:50:36;11.20;99.90
5846;DHT22;2949;50.778;7.094;2023-02-15T14:53:37;11.20;99.90
5846;DHT22;2949;50.778;7.094;2023-02-15T15:01:33;11.20;99.90
5846;DHT22;2949;50.778;7.094;2023-02-15T15:04:09;11.20;99.90
5846;DHT22;2949;50.778;7.094;2023-02-15T15:06:39;11.20;99.90
5846;DHT22;2949;50.778;7.094;2023-02-15T15:09:19;11.20;99.90
5846;DHT22;2949;50.778;7.094;2023-02-15T15:11:48;11.10;99.90
5846;DHT22;2949;50.778;7.094;2023-02-15T15:17:01;11.10;99.90
5846;DHT22;2949;50.778;7.094;2023-02-15T15:22:25;11.00;99.90
5846;DHT22;2949;50.778;7.094;2023-02-15T15:25:02;11.00;99.90
5846;DHT22;2949;50.778;7.094;2023-02-15T15:27:46;10.90;99.90
5846;DHT22;2949;50.778;7.094;2023-02-15T15:41:19;10.80;99.90
5846;DHT22;2949;50.778;7.094;2023-02-15T15:47:04;10.60;99.90
5846;DHT22;2949;50.778;7.094;2023-02-15T15:49:37;10.60;99.90
5846;DHT22;2949;50.778;7.094;2023-02-15T15:52:23;10.60;99.90
5846;DHT22;2949;50.778;7.094;2023-02-15T15:54:56;10.60;99.90
5846;DHT22;2949;50.778;7.094;2023-02-15T15:57:27;10.50;99.90
5846;DHT22;2949;50.778;7.094;2023-02-15T15:59:53;10.50;99.90
5846;DHT22;2949;50.778;7.094;2023-02-15T16:02:19;10.40;99.90
5846;DHT22;2949;50.778;7.094;2023-02-15T16:04:46;10.40;99.90
5846;DHT22;2949;50.778;7.094;2023-02-15T16:09:41;10.30;99.90
5846;DHT22;2949;50.778;7.094;2023-02-15T16:12:18;10.20;99.90
5846;DHT22;2949;50.778;7.094;2023-02-15T16:14:44;10.10;99.90
5846;DHT22;2949;50.778;7.094;2023-02-15T16:17:19;10.00;99.90
5846;DHT22;2949;50.778;7.094;2023-02-15T16:19:45;9.90;99.90
5846;DHT22;2949;50.778;7.094;2023-02-15T16:22:15;9.80;99.90
5846;DHT22;2949;50.778;7.094;2023-02-15T16:27:42;9.60;99.90
5846;DHT22;2949;50.778;7.094;2023-02-15T16:30:31;9.50;99.90
5846;DHT22;2949;50.778;7.094;2023-02-15T16:33:09;9.40;99.90
5846;DHT22;2949;50.778;7.094;2023-02-15T16:35:37;9.30;99.90
5846;DHT22;2949;50.778;7.094;2023-02-15T16:38:03;9.10;99.90
5846;DHT22;2949;50.778;7.094;2023-02-15T16:40:47;9.10;99.90
5846;DHT22;2949;50.778;7.094;2023-02-15T16:43:35;8.90;99.90
5846;DHT22;2949;50.778;7.094;2023-02-15T16:46:08;8.80;99.90
5846;DHT22;2949;50.778;7.094;2023-02-15T16:48:39;8.80;99.90
5846;DHT22;2949;50.778;7.094;2023-02-15T16:51:06;8.70;99.90
5846;DHT22;2949;50.778;7.094;2023-02-15T16:53:32;8.60;99.90
5846;DHT22;2949;50.778;7.094;2023-02-15T16:56:04;8.50;99.90
5846;DHT22;2949;50.778;7.094;2023-02-15T16:58:45;8.40;99.90
5846;DHT22;2949;50.778;7.094;2023-02-15T17:01:15;8.30;99.90
5846;DHT22;2949;50.778;7.094;2023-02-15T17:03:41;8.20;99.90
5846;DHT22;2949;50.778;7.094;2023-02-15T17:06:39;8.10;99.90
5846;DHT22;2949;50.778;7.094;2023-02-15T17:09:12;8.00;99.90
5846;DHT22;2949;50.778;7.094;2023-02-15T17:11:43;8.00;99.90
5846;DHT22;2949;50.778;7.094;2023-02-15T17:16:58;7.90;99.90
5846;DHT22;2949;50.778;7.094;2023-02-15T17:19:27;7.70;99.90
5846;DHT22;2949;50.778;7.094;2023-02-15T17:21:56;7.60;99.90
5846;DHT22;2949;50.778;7.094;2023-02-15T17:27:18;7.50;99.90
5846;DHT22;2949;50.778;7.094;2023-02-15T17:29:50;7.50;99.90
5846;DHT22;2949;50.778;7.094;2023-02-15T17:32:22;7.40;99.90
5846;DHT22;2949;50.778;7.094;2023-02-15T17:37:30;7.40;99.90
5846;DHT22;2949;50.778;7.094;2023-02-15T17:39:57;7.30;99.90
5846;DHT22;2949;50.778;7.094;2023-02-15T17:42:23;7.20;99.90
5846;DHT22;2949;50.778;7.094;2023-02-15T17:44:48;7.10;99.90
5846;DHT22;2949;50.778;7.094;2023-02-15T17:47:17;7.20;99.90
5846;DHT22;2949;50.778;7.094;2023-02-15T17:49:43;7.10;99.90
5846;DHT22;2949;50.778;7.094;2023-02-15T17:52:13;7.10;99.90
5846;DHT22;2949;50.778;7.094;2023-02-15T17:54:41;7.00;99.90
5846;DHT22;2949;50.778;7.094;2023-02-15T17:57:26;7.00;99.90
5846;DHT22;2949;50.778;7.094;2023-02-15T17:59:53;6.80;99.90
5846;DHT22;2949;50.778;7.094;2023-02-15T18:02:37;6.80;99.90
5846;DHT22;2949;50.778;7.094;2023-02-15T18:05:21;6.80;99.90
5846;DHT22;2949;50.778;7.094;2023-02-15T18:08:15;6.70;99.90
5846;DHT22;2949;50.778;7.094;2023-02-15T18:11:00;6.70;99.90
5846;DHT22;2949;50.778;7.094;2023-02-15T18:13:45;6.70;99.90
5846;DHT22;2949;50.778;7.094;2023-02-15T18:16:19;6.70;99.90
5846;DHT22;2949;50.778;7.094;2023-02-15T18:18:45;6.70;99.90
5846;DHT22;2949;50.778;7.094;2023-02-15T18:21:11;6.60;99.90
5846;DHT22;2949;50.778;7.094;2023-02-15T18:23:38;6.60;99.90
5846;DHT22;2949;50.778;7.094;2023-02-15T18:26:04;6.70;99.90
5846;DHT22;2949;50.778;7.094;2023-02-15T18:28:30;6.80;99.90
5846;DHT22;2949;50.778;7.094;2023-02-15T18:30:56;6.80;99.90
5846;DHT22;2949;50.778;7.094;2023-02-15T18:33:34;6.80;99.90
5846;DHT22;2949;50.778;7.094;2023-02-15T18:36:05;6.80;99.90
5846;DHT22;2949;50.778;7.094;2023-02-15T18:38:31;6.80;99.90
5846;DHT22;2949;50.778;7.094;2023-02-15T18:40:57;6.80;99.90
5846;DHT22;2949;50.778;7.094;2023-02-15T18:43:23;6.80;99.90
5846;DHT22;2949;50.778;7.094;2023-02-15T18:45:48;6.70;99.90
5846;DHT22;2949;50.778;7.094;2023-02-15T18:48:14;6.80;99.90
5846;DHT22;2949;50.778;7.094;2023-02-15T18:50:40;6.90;99.90
5846;DHT22;2949;50.778;7.094;2023-02-15T18:53:10;6.80;99.90
5846;DHT22;2949;50.778;7.094;2023-02-15T18:55:38;6.90;99.90
5846;DHT22;2949;50.778;7.094;2023-02-15T18:58:03;7.00;99.90
5846;DHT22;2949;50.778;7.094;2023-02-15T19:00:31;7.00;99.90
5846;DHT22;2949;50.778;7.094;2023-02-15T19:02:57;7.00;99.90
5846;DHT22;2949;50.778;7.094;2023-02-15T19:05:25;7.10;99.90
5846;DHT22;2949;50.778;7.094;2023-02-15T19:07:52;7.10;99.90
5846;DHT22;2949;50.778;7.094;2023-02-15T19:10:23;7.10;99.90
5846;DHT22;2949;50.778;7.094;2023-02-15T19:12:49;7.00;99.90
5846;DHT22;2949;50.778;7.094;2023-02-15T19:15:18;6.90;99.90
5846;DHT22;2949;50.778;7.094;2023-02-15T19:17:44;6.80;99.90
5846;DHT22;2949;50.778;7.094;2023-02-15T19:20:25;6.70;99.90
5846;DHT22;2949;50.778;7.094;2023-02-15T19:22:52;6.60;99.90
5846;DHT22;2949;50.778;7.094;2023-02-15T19:25:22;6.40;99.90
5846;DHT22;2949;50.778;7.094;2023-02-15T19:27:49;6.30;99.90
5846;DHT22;2949;50.778;7.094;2023-02-15T19:30:18;6.20;99.90